Scammon Bay Airport

About
Name: Scammon Bay Airport
Identifier:  SCM/PACM
Serves:  Scammon Bay, Alaska
Owner:  Alaska DOT&PF - Central Region
Public/Private:  Public
Local Time:  20. Aug 07:01 AKDT
Description: Scammon Bay Airport is a state-owned public-use airport located in Scammon Bay, a city in the Kusilvak Census Area of the U.S. state of Alaska.[1]
Source: Wikipedia
Location
Scammon Bay
  United States

Runways
Identifier Length (m/ft) Surface
10/28 3,000/3,000 Gravel
4W/22W 10,000/10,000 Water
Flights per Day
9 flights
Distance: 143km (89mi)
Punctuality
93% (0 flights per day delayed)
Delay Average: 424 minutes
Current Weather
 10 C (Humidity: 100%)
  4kt (7km/h / 4mph) from 70°
  Overcast at 800 feet (243 meter)
  16km (10 mi.)
 METAR PACM 201356Z AUTO 07004KT 10SM OVC008 10/10 A2991 RMK AO2 SLP125 T01000100

Current Flights

Departures
Number Departure To Airline
Arrivals
Number Arrival From Airline
 GV294 17:50 +1076  Bethel Grant Aviation
 GV291 09:20 +151  Bethel Grant Aviation
 GV292 13:20 +1328  Bethel Grant Aviation
 GV293 15:20 +68  Bethel Grant Aviation
 GV294 17:50  Bethel Grant Aviation

Current Delays

Departures
N/A
Arrivals
N/A

Destinations

Top Destinations
Airport Flights
per week
Seats
per week
  Kasigluk (KUK) 0 - 0 0

Airlines & Planes

Top Airlines
Airline Flights
per Day
Seats
per Day
Ryan Air 0 -
Top Plane Types
Model Flights Seats
Construcciones C-212-CC 0.0/day - 0